createdAt,value
2023-04-20T00:12:02.834Z,13.03
2023-04-20T00:27:06.456Z,12.90
2023-04-20T00:42:10.581Z,12.71
2023-04-20T00:57:14.603Z,12.66
2023-04-20T01:12:17.764Z,12.67
2023-04-20T01:27:20.833Z,12.66
2023-04-20T01:42:24.136Z,12.68
2023-04-20T01:57:27.330Z,12.62
2023-04-20T02:12:30.821Z,12.40
2023-04-20T02:27:34.531Z,12.17
2023-04-20T02:42:38.164Z,11.87
2023-04-20T02:57:43.197Z,11.60
2023-04-20T03:12:46.619Z,11.33
2023-04-20T03:27:59.835Z,11.02
2023-04-20T03:43:03.329Z,10.86
2023-04-20T03:58:09.533Z,10.75
2023-04-20T04:13:27.112Z,10.70
2023-04-20T04:28:31.482Z,10.72
2023-04-20T04:43:48.234Z,10.86
2023-04-20T04:59:00.803Z,11.18
2023-04-20T05:32:19.016Z,12.03
2023-04-20T05:47:22.175Z,12.50
2023-04-20T06:02:26.291Z,12.85
2023-04-20T06:17:29.507Z,13.31
2023-04-20T06:32:32.682Z,13.92
2023-04-20T06:47:36.327Z,14.43
2023-04-20T07:02:44.684Z,14.86
2023-04-20T07:23:51.048Z,15.99
2023-04-20T07:38:54.312Z,16.98
2023-04-20T07:53:57.674Z,18.01
2023-04-20T08:09:00.786Z,18.93
2023-04-20T08:24:05.564Z,18.60
2023-04-20T08:39:11.773Z,18.83
2023-04-20T08:54:16.933Z,19.92
2023-04-20T09:09:22.422Z,21.96
2023-04-20T09:24:34.029Z,23.60
2023-04-20T09:39:42.659Z,24.67
2023-04-20T09:54:46.707Z,24.69
2023-04-20T10:09:50.043Z,25.30
2023-04-20T10:24:53.351Z,25.61
2023-04-20T10:39:56.605Z,26.06
2023-04-20T10:54:59.838Z,26.36
